Time;durP1;ratioP1;P1;durP2;ratioP2;P2;SDS_P1;SDS_P2;PMS_P1;PMS_P2;Temp;Humidity;BMP_temperature;BMP_pressure;BME280_temperature;BME280_humidity;BME280_pressure;Samples;Min_cycle;Max_cycle;Signal;HPM_P1;HPM_P2
2022/10/05 00:01:30;;;;;;;10.85;4.90;;;20.20;85.00;;;;;;5035649;28;20025;-80
2022/10/05 00:04:18;;;;;;;11.10;4.82;;;20.10;85.50;;;;;;5035706;28;20022;-78
2022/10/05 00:06:59;;;;;;;13.27;5.00;;;20.10;85.50;;;;;;5019773;28;20034;-77
2022/10/05 00:09:24;;;;;;;12.13;4.97;;;20.10;85.00;;;;;;5035787;28;20429;-79
2022/10/05 00:11:50;;;;;;;10.68;4.63;;;20.00;84.90;;;;;;5035610;28;20029;-79
2022/10/05 00:14:22;;;;;;;10.75;4.65;;;20.00;84.60;;;;;;5035782;28;20022;-77
2022/10/05 00:16:48;;;;;;;11.15;4.28;;;20.00;84.20;;;;;;5035554;28;20316;-79
2022/10/05 00:19:22;;;;;;;9.10;3.92;;;19.90;84.50;;;;;;5035793;28;20036;-74
2022/10/05 00:21:48;;;;;;;;;;;19.90;84.40;;;;;;5035821;28;20026;-74
2022/10/05 00:24:17;;;;;;;8.65;3.83;;;19.90;84.70;;;;;;5035280;28;19905;-73
2022/10/05 00:26:43;;;;;;;9.57;4.20;;;19.80;84.00;;;;;;5035110;28;20037;-73
2022/10/05 00:29:21;;;;;;;9.38;3.70;;;19.80;84.30;;;;;;5035097;28;20063;-74
2022/10/05 00:31:47;;;;;;;9.07;3.75;;;19.80;84.30;;;;;;5034929;28;20068;-74
2022/10/05 00:34:13;;;;;;;9.52;4.15;;;19.80;84.40;;;;;;5034913;28;20029;-74
2022/10/05 00:36:39;;;;;;;9.38;3.95;;;19.80;84.30;;;;;;5034876;28;20036;-75
2022/10/05 00:39:05;;;;;;;7.05;3.30;;;19.70;84.20;;;;;;5035154;28;20018;-75
2022/10/05 00:41:33;;;;;;;12.63;3.70;;;19.70;84.10;;;;;;5034944;28;20417;-73
2022/10/05 00:44:26;;;;;;;11.65;3.92;;;19.70;84.40;;;;;;5034949;28;20540;-74
2022/10/05 00:46:55;;;;;;;9.85;4.10;;;19.60;84.20;;;;;;5034764;28;20154;-74
2022/10/05 00:49:40;;;;;;;8.63;3.20;;;19.60;84.30;;;;;;5034833;28;20025;-73
2022/10/05 00:52:23;;;;;;;10.15;2.95;;;19.50;84.40;;;;;;5034919;28;20025;-76
2022/10/05 00:55:11;;;;;;;10.50;3.25;;;19.50;84.50;;;;;;5035102;28;20490;-79
2022/10/05 00:57:39;;;;;;;7.45;3.05;;;19.50;83.90;;;;;;5034845;28;20049;-74
2022/10/05 01:00:09;;;;;;;9.70;3.03;;;19.50;84.50;;;;;;5034611;28;20025;-77
2022/10/05 01:02:50;;;;;;;9.18;3.63;;;19.50;84.40;;;;;;5034625;28;20018;-76
2022/10/05 01:05:47;;;;;;;9.75;3.47;;;19.50;85.00;;;;;;5035847;28;20064;-75
2022/10/05 01:08:22;;;;;;;7.18;3.03;;;19.50;85.10;;;;;;5036264;28;20075;-73
2022/10/05 01:11:12;;;;;;;9.93;3.00;;;19.50;84.60;;;;;;5016595;28;20076;-74
2022/10/05 01:13:37;;;;;;;11.88;3.35;;;19.50;85.70;;;;;;5034179;28;20391;-74
2022/10/05 01:16:31;;;;;;;10.60;3.20;;;19.50;84.70;;;;;;5016102;28;20029;-77
2022/10/05 01:19:05;;;;;;;8.80;3.05;;;19.40;85.40;;;;;;5034403;28;20022;-74
2022/10/05 01:21:39;;;;;;;8.85;3.15;;;19.40;85.80;;;;;;5034434;28;20021;-76
2022/10/05 01:24:55;;;;;;;8.77;3.00;;;19.30;85.40;;;;;;5034381;28;20025;-77
2022/10/05 01:27:35;;;;;;;11.63;3.53;;;19.30;86.40;;;;;;4973836;28;20461;-73
2022/10/05 01:30:09;;;;;;;7.15;3.22;;;19.30;86.70;;;;;;5016805;28;20122;-79
2022/10/05 01:32:53;;;;;;;;;;;19.20;86.20;;;;;;5034917;28;20025;-73
2022/10/05 01:35:45;;;;;;;8.80;3.38;;;19.20;87.30;;;;;;5034965;28;19982;-74
2022/10/05 01:38:43;;;;;;;7.80;3.15;;;19.20;86.50;;;;;;5032076;28;20037;-77
2022/10/05 01:41:30;;;;;;;9.00;3.10;;;19.20;86.90;;;;;;5002743;28;20041;-75
2022/10/05 01:44:05;;;;;;;11.60;3.22;;;19.20;87.40;;;;;;5034038;28;20025;-75
2022/10/05 01:46:41;;;;;;;9.68;2.97;;;19.20;87.60;;;;;;5033471;28;20033;-75
2022/10/05 01:49:40;;;;;;;9.60;3.05;;;19.10;87.30;;;;;;5033623;28;20162;-77
2022/10/05 01:52:08;;;;;;;8.10;2.88;;;19.10;87.80;;;;;;5033468;28;20025;-77
2022/10/05 01:55:05;;;;;;;9.15;2.78;;;19.10;87.40;;;;;;5033915;28;20032;-76
2022/10/05 01:58:04;;;;;;;8.68;3.10;;;19.10;88.10;;;;;;5015956;28;20407;-78
2022/10/05 02:00:36;;;;;;;6.57;2.95;;;19.10;88.00;;;;;;5033846;28;20100;-78
2022/10/05 02:03:04;;;;;;;7.45;2.80;;;19.10;88.10;;;;;;5033697;28;20104;-76
2022/10/05 02:05:39;;;;;;;7.13;2.80;;;19.10;88.40;;;;;;5033588;28;20470;-75
2022/10/05 02:08:29;;;;;;;8.95;2.58;;;19.00;88.00;;;;;;5035566;28;20482;-74
2022/10/05 02:11:07;;;;;;;6.57;2.40;;;19.00;88.60;;;;;;5040540;28;20026;-78
2022/10/05 02:13:33;;;;;;;7.95;2.60;;;19.00;88.60;;;;;;5045058;28;20035;-79
2022/10/05 02:16:22;;;;;;;7.95;2.53;;;19.00;88.20;;;;;;5045901;28;20565;-80
2022/10/05 02:18:52;;;;;;;11.55;2.80;;;19.00;88.40;;;;;;5043159;28;20493;-81
2022/10/05 02:21:20;;;;;;;10.18;2.83;;;18.90;88.10;;;;;;5038206;28;20433;-76
2022/10/05 02:23:51;;;;;;;9.48;2.70;;;18.90;88.10;;;;;;5037937;28;20356;-79
2022/10/05 02:26:18;;;;;;;8.80;3.05;;;18.90;88.80;;;;;;5036811;28;20123;-74
2022/10/05 02:29:01;;;;;;;7.03;2.83;;;18.90;88.70;;;;;;5037059;28;20029;-73
2022/10/05 02:31:41;;;;;;;7.72;2.80;;;18.90;89.10;;;;;;5034528;28;20055;-79
2022/10/05 02:34:32;;;;;;;5.70;2.47;;;18.80;89.10;;;;;;5021130;28;20051;-76
2022/10/05 02:36:58;;;;;;;8.30;2.67;;;18.80;89.30;;;;;;5050499;28;20445;-79
2022/10/05 02:39:53;;;;;;;7.75;2.92;;;18.80;89.30;;;;;;5034037;28;20057;-78
2022/10/05 02:42:23;;;;;;;7.70;2.60;;;18.80;89.40;;;;;;4982559;28;20373;-80
2022/10/05 02:44:51;;;;;;;7.72;3.08;;;18.80;89.60;;;;;;5037754;28;20017;-78
2022/10/05 02:47:32;;;;;;;8.38;3.30;;;18.80;90.00;;;;;;5036597;28;20067;-76
2022/10/05 02:50:16;;;;;;;8.20;2.97;;;18.80;90.20;;;;;;5034992;28;20029;-81
2022/10/05 02:53:15;;;;;;;8.02;3.08;;;18.80;90.00;;;;;;5035322;28;20060;-78
2022/10/05 02:55:55;;;;;;;10.43;3.03;;;18.80;90.10;;;;;;5034756;28;20064;-73
2022/10/05 02:58:34;;;;;;;7.20;2.78;;;18.70;90.20;;;;;;5032739;28;20037;-77
2022/10/05 03:01:12;;;;;;;8.57;3.10;;;18.70;90.10;;;;;;5032560;28;20029;-75
2022/10/05 03:03:57;;;;;;;9.02;3.03;;;18.70;90.50;;;;;;5014986;28;20053;-74
2022/10/05 03:06:29;;;;;;;8.02;3.10;;;18.70;90.70;;;;;;5032565;28;20112;-75
2022/10/05 03:09:09;;;;;;;9.18;3.15;;;18.70;90.40;;;;;;5014814;28;20391;-76
2022/10/05 03:12:08;;;;;;;13.45;3.08;;;18.70;90.40;;;;;;5032494;28;20025;-77
2022/10/05 03:14:49;;;;;;;8.80;3.60;;;18.60;90.70;;;;;;5015898;28;20025;-74
2022/10/05 03:17:21;;;;;;;9.02;3.42;;;18.60;90.80;;;;;;5033770;28;20029;-73
2022/10/05 03:20:28;;;;;;;9.98;3.45;;;18.60;90.60;;;;;;5033392;28;20132;-75
2022/10/05 03:23:01;;;;;;;7.63;2.75;;;18.60;90.80;;;;;;4952262;29;20038;-75
2022/10/05 03:26:01;;;;;;;7.82;3.15;;;18.60;90.60;;;;;;5019380;28;20065;-76
2022/10/05 03:29:05;;;;;;;9.00;3.10;;;18.60;90.80;;;;;;5013901;28;20049;-73
2022/10/05 03:31:58;;;;;;;7.82;3.30;;;18.50;90.80;;;;;;5025577;28;20033;-75
2022/10/05 03:34:33;;;;;;;4.60;2.33;;;18.50;90.90;;;;;;5036421;28;20422;-73
2022/10/05 03:37:06;;;;;;;9.05;3.25;;;18.50;91.10;;;;;;5037111;28;20056;-74
2022/10/05 03:39:55;;;;;;;8.73;3.10;;;18.50;90.90;;;;;;5036430;28;20025;-77
2022/10/05 03:42:48;;;;;;;10.52;3.50;;;18.50;90.90;;;;;;5036252;28;20180;-75
2022/10/05 03:45:47;;;;;;;7.05;2.60;;;18.40;91.10;;;;;;5037127;28;20022;-75
2022/10/05 03:48:31;;;;;;;6.57;3.05;;;18.30;91.20;;;;;;5037436;28;20490;-78
2022/10/05 03:50:59;;;;;;;9.85;3.92;;;18.30;91.30;;;;;;5042465;28;20025;-75
2022/10/05 03:53:30;;;;;;;11.70;4.05;;;18.30;91.40;;;;;;5039503;28;20040;-74
2022/10/05 03:56:27;;;;;;;6.35;3.25;;;18.30;91.30;;;;;;5037015;28;20449;-73
2022/10/05 03:58:56;;;;;;;7.75;3.67;;;18.30;91.60;;;;;;5043858;28;20053;-81
2022/10/05 04:01:30;;;;;;;5.85;2.88;;;18.30;91.60;;;;;;5047723;28;20026;-76
2022/10/05 04:04:03;;;;;;;12.52;3.10;;;18.30;91.40;;;;;;5047729;28;20025;-76
2022/10/05 04:06:40;;;;;;;8.98;3.25;;;18.30;91.40;;;;;;5046794;28;20045;-73
2022/10/05 04:09:17;;;;;;;8.77;3.22;;;18.20;91.50;;;;;;5037147;28;20044;-79
2022/10/05 04:12:20;;;;;;;8.15;3.40;;;18.20;91.70;;;;;;5038774;28;20470;-76
2022/10/05 04:15:18;;;;;;;5.82;3.08;;;18.20;91.70;;;;;;5036078;28;20030;-76
2022/10/05 04:17:49;;;;;;;12.55;3.25;;;18.20;92.10;;;;;;5014685;28;20034;-74
2022/10/05 04:20:43;;;;;;;6.88;3.00;;;18.20;91.60;;;;;;5035240;28;20101;-74
2022/10/05 04:23:09;;;;;;;7.50;3.40;;;18.20;91.80;;;;;;5030371;28;20065;-74
2022/10/05 04:25:55;;;;;;;7.43;3.00;;;18.30;91.60;;;;;;5035503;28;20116;-76
2022/10/05 04:28:52;;;;;;;6.90;3.00;;;18.30;91.60;;;;;;5035180;28;20080;-74
2022/10/05 04:31:45;;;;;;;9.18;3.60;;;18.30;91.80;;;;;;5034989;28;20413;-74
2022/10/05 04:34:35;;;;;;;9.13;4.03;;;18.20;91.60;;;;;;4995753;28;20116;-80
2022/10/05 04:37:06;;;;;;;15.50;3.55;;;18.20;91.80;;;;;;5034812;28;20045;-74
2022/10/05 04:39:58;;;;;;;7.90;3.10;;;18.20;91.70;;;;;;5034111;28;20083;-75
2022/10/05 04:42:34;;;;;;;6.57;3.30;;;18.10;91.70;;;;;;5034063;28;20031;-74
2022/10/05 04:45:28;;;;;;;6.43;2.95;;;18.10;91.90;;;;;;5034759;28;20474;-75
2022/10/05 04:48:05;;;;;;;11.07;3.17;;;18.10;91.80;;;;;;5035008;28;20033;-74
2022/10/05 04:50:54;;;;;;;10.82;3.70;;;18.10;91.90;;;;;;5034510;28;20030;-73
2022/10/05 04:53:55;;;;;;;6.53;3.40;;;18.10;91.90;;;;;;4987908;28;20029;-73
2022/10/05 04:56:44;;;;;;;9.32;4.05;;;18.00;91.90;;;;;;4966878;28;20056;-76
2022/10/05 04:59:19;;;;;;;8.80;3.58;;;18.00;91.70;;;;;;5034745;28;20047;-76
2022/10/05 05:02:06;;;;;;;7.43;3.30;;;18.00;91.90;;;;;;5034482;28;20553;-75
2022/10/05 05:04:43;;;;;;;9.75;4.03;;;18.00;92.00;;;;;;5034394;28;20021;-76
2022/10/05 05:07:22;;;;;;;9.93;3.53;;;18.00;91.80;;;;;;5034172;28;20041;-74
2022/10/05 05:10:13;;;;;;;8.63;3.70;;;18.00;92.00;;;;;;5034569;28;20029;-77
2022/10/05 05:13:18;;;;;;;6.22;3.30;;;17.90;92.00;;;;;;5034502;28;20028;-79
2022/10/05 05:15:58;;;;;;;8.10;3.60;;;17.80;92.00;;;;;;5034223;28;20014;-78
2022/10/05 05:18:35;;;;;;;20.80;14.18;;;17.80;92.10;;;;;;5034407;28;20547;-81
2022/10/05 05:21:47;;;;;;;13.27;6.63;;;17.80;92.00;;;;;;5034150;28;20064;-84
2022/10/05 05:24:37;;;;;;;9.68;4.07;;;17.80;92.10;;;;;;5026219;28;20120;-81
2022/10/05 05:27:41;;;;;;;7.65;3.97;;;17.80;92.20;;;;;;5033934;28;20063;-81
2022/10/05 05:30:13;;;;;;;10.20;3.63;;;17.90;92.20;;;;;;5034442;28;20093;-80
2022/10/05 05:33:07;;;;;;;6.53;3.47;;;17.90;92.10;;;;;;5032693;28;20064;-80
2022/10/05 05:35:41;;;;;;;8.27;3.55;;;17.90;92.20;;;;;;5034141;28;20022;-80
2022/10/05 05:38:22;;;;;;;9.55;3.58;;;17.90;91.90;;;;;;5035223;28;20086;-80
2022/10/05 05:41:30;;;;;;;8.40;3.50;;;18.00;92.10;;;;;;5035276;28;20030;-81
2022/10/05 05:44:24;;;;;;;7.18;3.75;;;18.10;92.00;;;;;;5010857;28;20033;-80
2022/10/05 05:47:03;;;;;;;10.70;4.15;;;18.10;91.90;;;;;;4999708;28;20072;-80
2022/10/05 05:49:28;;;;;;;10.57;4.47;;;18.00;91.70;;;;;;5036521;28;20028;-79
2022/10/05 05:52:00;;;;;;;12.52;5.03;;;18.00;91.70;;;;;;5039373;28;20490;-82
2022/10/05 05:54:45;;;;;;;9.57;5.32;;;18.00;91.80;;;;;;5038590;28;20036;-80
2022/10/05 05:57:14;;;;;;;11.30;4.80;;;18.00;91.80;;;;;;5037271;28;20057;-75
2022/10/05 06:00:02;;;;;;;15.57;4.65;;;18.10;91.90;;;;;;5016319;28;20379;-73
2022/10/05 06:02:51;;;;;;;14.98;4.50;;;18.10;91.90;;;;;;5034452;28;20087;-77
2022/10/05 06:05:35;;;;;;;19.77;4.43;;;18.20;91.80;;;;;;5026615;28;20095;-77
2022/10/05 06:08:15;;;;;;;10.35;4.18;;;18.30;91.70;;;;;;5034206;28;20042;-76
2022/10/05 06:10:48;;;;;;;30.10;8.93;;;18.30;91.80;;;;;;5034102;28;20025;-71
2022/10/05 06:13:24;;;;;;;21.92;8.38;;;18.50;91.50;;;;;;5033864;28;20018;-74
2022/10/05 06:16:09;;;;;;;16.38;6.50;;;18.50;91.70;;;;;;5033563;28;20036;-73
2022/10/05 06:18:40;;;;;;;18.92;6.28;;;18.70;91.30;;;;;;5033765;28;20021;-77
2022/10/05 06:21:15;;;;;;;10.52;5.53;;;18.80;91.10;;;;;;5033937;28;20033;-77
2022/10/05 06:23:49;;;;;;;14.18;5.70;;;18.90;91.00;;;;;;5033895;28;20026;-77
2022/10/05 06:26:35;;;;;;;14.15;5.32;;;19.10;90.90;;;;;;5043181;28;20042;-74
2022/10/05 06:29:07;;;;;;;10.70;4.85;;;19.20;90.70;;;;;;5035243;28;20025;-75
2022/10/05 06:31:38;;;;;;;16.00;4.55;;;19.20;90.50;;;;;;5053126;28;20052;-75
2022/10/05 06:34:13;;;;;;;11.55;4.50;;;19.30;90.40;;;;;;5053128;28;20453;-72
2022/10/05 06:37:28;;;;;;;8.40;3.97;;;19.30;90.20;;;;;;5053507;28;20389;-77
2022/10/05 06:40:00;;;;;;;9.60;3.70;;;19.40;89.70;;;;;;4987633;28;20075;-75
2022/10/05 06:42:40;;;;;;;13.32;4.60;;;19.60;89.70;;;;;;5053588;28;20082;-74
2022/10/05 06:45:21;;;;;;;10.88;3.53;;;19.60;89.30;;;;;;5054013;28;20470;-74
2022/10/05 06:48:23;;;;;;;9.63;4.13;;;19.70;88.70;;;;;;5049869;28;20041;-72
2022/10/05 06:51:06;;;;;;;8.40;3.80;;;19.80;88.10;;;;;;5052862;28;20017;-74
2022/10/05 06:53:50;;;;;;;10.15;4.13;;;19.90;87.80;;;;;;5052760;28;20025;-72
2022/10/05 06:56:24;;;;;;;;;;;20.10;87.20;;;;;;5052585;28;20075;-71
2022/10/05 06:59:03;;;;;;;16.30;4.93;;;20.30;86.10;;;;;;5052537;28;20324;-72
2022/10/05 07:01:55;;;;;;;12.85;6.18;;;20.40;86.40;;;;;;5052489;28;20021;-72
2022/10/05 07:04:41;;;;;;;16.92;8.18;;;20.50;85.40;;;;;;5034296;28;20399;-74
2022/10/05 07:07:13;;;;;;;10.75;4.38;;;20.70;84.90;;;;;;5052412;28;20059;-73
2022/10/05 07:09:39;;;;;;;11.30;4.05;;;20.70;84.30;;;;;;5040441;28;20047;-73
2022/10/05 07:12:31;;;;;;;9.35;3.88;;;20.70;83.60;;;;;;5033075;28;20100;-74
2022/10/05 07:15:03;;;;;;;8.95;3.83;;;20.80;83.70;;;;;;5032728;28;20096;-78
2022/10/05 07:17:57;;;;;;;9.82;3.88;;;20.90;83.30;;;;;;5032734;28;20021;-76
2022/10/05 07:20:48;;;;;;;9.93;3.90;;;20.90;82.70;;;;;;5032349;28;20032;-74
2022/10/05 07:23:23;;;;;;;11.65;3.55;;;20.90;82.60;;;;;;5032507;28;20036;-75
2022/10/05 07:26:17;;;;;;;20.63;4.25;;;21.00;82.20;;;;;;5032046;28;20489;-75
2022/10/05 07:29:11;;;;;;;9.82;3.50;;;21.10;82.40;;;;;;5032438;28;20374;-74
2022/10/05 07:31:45;;;;;;;;;;;21.20;80.80;;;;;;5032600;28;20026;-75
2022/10/05 07:34:17;;;;;;;14.18;3.80;;;21.20;79.60;;;;;;5014464;28;19991;-75
2022/10/05 07:39:40;;;;;;;6.88;3.45;;;21.30;80.00;;;;;;5032589;28;20035;-74
2022/10/05 07:42:39;;;;;;;12.20;3.53;;;21.30;79.90;;;;;;5032461;28;20026;-76
2022/10/05 07:45:27;;;;;;;12.60;3.58;;;21.30;80.20;;;;;;5032282;28;20112;-77
2022/10/05 07:48:00;;;;;;;10.48;3.05;;;21.30;79.40;;;;;;5032367;28;20110;-76
2022/10/05 07:50:58;;;;;;;16.60;3.90;;;21.30;79.30;;;;;;5032610;28;20022;-74
2022/10/05 07:53:38;;;;;;;12.25;3.47;;;21.30;80.00;;;;;;5032266;28;20025;-75
2022/10/05 07:56:15;;;;;;;9.45;3.80;;;21.30;80.20;;;;;;5032302;28;20128;-74
2022/10/05 07:58:48;;;;;;;17.55;3.75;;;21.30;79.10;;;;;;5032129;28;20123;-75
2022/10/05 08:01:35;;;;;;;16.95;4.03;;;21.30;78.90;;;;;;5032150;28;20026;-74
2022/10/05 08:04:23;;;;;;;10.77;3.42;;;21.30;79.00;;;;;;5031973;28;20113;-74
2022/10/05 08:06:51;;;;;;;10.05;3.22;;;21.30;78.80;;;;;;5031938;28;20055;-74
2022/10/05 08:09:38;;;;;;;9.15;2.92;;;21.30;78.50;;;;;;5032419;28;20014;-74
2022/10/05 08:12:29;;;;;;;7.18;2.97;;;21.30;79.10;;;;;;5032316;28;20402;-73
2022/10/05 08:15:21;;;;;;;9.80;3.22;;;21.40;79.20;;;;;;5032459;28;20029;-76
2022/10/05 08:17:59;;;;;;;15.10;4.82;;;21.40;78.70;;;;;;5036078;28;20091;-75
2022/10/05 08:20:46;;;;;;;9.85;2.85;;;21.40;79.10;;;;;;5035895;28;20057;-75
2022/10/05 08:23:37;;;;;;;7.07;2.83;;;21.40;77.20;;;;;;5036279;28;20076;-75
2022/10/05 08:26:32;;;;;;;7.72;2.90;;;21.30;78.10;;;;;;5035650;28;20025;-75
2022/10/05 08:29:09;;;;;;;7.50;2.63;;;21.30;78.30;;;;;;5035646;28;20034;-74
2022/10/05 08:31:40;;;;;;;9.93;2.83;;;21.30;77.20;;;;;;5017663;28;20113;-75
2022/10/05 08:34:24;;;;;;;11.75;3.60;;;21.30;78.40;;;;;;5035139;28;20033;-75
2022/10/05 08:36:54;;;;;;;11.93;3.40;;;21.40;78.20;;;;;;5035265;28;20092;-75
2022/10/05 08:39:23;;;;;;;13.77;3.45;;;21.50;77.20;;;;;;5017337;28;20034;-75
2022/10/05 08:42:02;;;;;;;9.02;2.97;;;21.60;76.90;;;;;;5017395;28;20048;-75
2022/10/05 08:44:41;;;;;;;6.40;2.42;;;21.60;76.60;;;;;;5034892;28;20030;-75
2022/10/05 08:47:26;;;;;;;10.93;2.78;;;21.60;75.80;;;;;;5017397;28;20124;-74
2022/10/05 08:50:14;;;;;;;5.75;2.30;;;21.60;75.80;;;;;;5035108;28;20025;-75
2022/10/05 08:52:59;;;;;;;7.10;2.78;;;21.60;75.90;;;;;;5034569;28;20447;-74
2022/10/05 08:55:37;;;;;;;7.32;3.05;;;21.60;76.60;;;;;;5034505;28;20030;-75
2022/10/05 08:58:25;;;;;;;11.98;2.88;;;21.70;76.50;;;;;;5034666;28;20149;-75
2022/10/05 09:01:25;;;;;;;8.23;2.72;;;21.70;76.00;;;;;;5034523;28;20391;-75
2022/10/05 09:04:16;;;;;;;11.10;3.30;;;21.80;75.90;;;;;;5034520;28;20022;-75
2022/10/05 09:06:51;;;;;;;11.30;3.10;;;21.80;75.80;;;;;;5034817;28;20068;-75
2022/10/05 09:09:50;;;;;;;8.85;3.15;;;21.90;75.70;;;;;;5034871;28;20397;-75
2022/10/05 09:13:14;;;;;;;10.45;3.53;;;22.00;75.50;;;;;;5034784;28;20378;-75
2022/10/05 09:16:07;;;;;;;9.90;3.03;;;22.10;75.20;;;;;;4973545;28;20034;-75
2022/10/05 09:19:15;;;;;;;9.88;3.10;;;22.20;75.00;;;;;;4973328;28;20047;-76
2022/10/05 09:22:05;;;;;;;12.02;3.75;;;22.30;74.80;;;;;;5002024;28;20095;-75
2022/10/05 09:24:52;;;;;;;9.85;3.63;;;22.40;74.50;;;;;;5008375;28;20134;-75
2022/10/05 09:27:24;;;;;;;7.22;3.58;;;22.50;74.10;;;;;;5033577;28;20037;-75
2022/10/05 09:29:50;;;;;;;12.85;4.35;;;22.50;73.30;;;;;;5034244;28;20022;-75
2022/10/05 09:32:26;;;;;;;8.15;3.22;;;22.60;73.00;;;;;;5034514;28;20030;-76
2022/10/05 09:35:04;;;;;;;9.50;3.70;;;22.70;73.30;;;;;;5034198;28;20115;-76
2022/10/05 09:38:01;;;;;;;13.32;5.88;;;22.80;72.90;;;;;;5034295;28;20100;-75
2022/10/05 09:41:11;;;;;;;18.33;5.85;;;22.80;72.60;;;;;;5033951;28;20375;-76
2022/10/05 09:43:54;;;;;;;11.82;5.22;;;22.90;72.40;;;;;;5018578;28;20037;-75
2022/10/05 09:47:02;;;;;;;10.60;5.72;;;23.00;72.10;;;;;;5033639;28;20501;-75
2022/10/05 09:49:37;;;;;;;12.63;5.80;;;23.10;72.10;;;;;;5033737;28;20033;-76
2022/10/05 09:52:33;;;;;;;17.00;5.15;;;23.20;72.30;;;;;;5033660;28;20101;-76
2022/10/05 09:55:07;;;;;;;11.05;4.25;;;23.30;71.30;;;;;;5033401;28;20033;-75
2022/10/05 09:57:39;;;;;;;10.45;4.70;;;23.40;71.10;;;;;;5033502;28;20042;-74
2022/10/05 10:00:34;;;;;;;9.35;3.75;;;23.50;70.80;;;;;;5033760;28;20029;-75
2022/10/05 10:03:31;;;;;;;7.50;3.20;;;23.60;70.30;;;;;;5033458;28;20025;-76
2022/10/05 10:06:40;;;;;;;7.85;3.60;;;23.60;69.50;;;;;;5033185;28;20502;-76
2022/10/05 10:09:12;;;;;;;7.70;3.13;;;23.70;70.40;;;;;;5032461;28;20148;-74
2022/10/05 10:11:53;;;;;;;10.77;3.25;;;23.80;69.70;;;;;;5033271;28;20104;-75
2022/10/05 10:14:41;;;;;;;8.13;2.95;;;23.90;68.50;;;;;;5033314;28;20030;-75
2022/10/05 10:17:23;;;;;;;8.43;3.33;;;24.00;68.00;;;;;;5033331;28;20075;-75
2022/10/05 10:20:00;;;;;;;10.50;2.85;;;24.10;68.20;;;;;;5033056;28;20096;-75
2022/10/05 10:23:01;;;;;;;13.07;2.95;;;24.20;67.50;;;;;;5033023;28;20025;-76
2022/10/05 10:25:36;;;;;;;9.93;2.90;;;24.30;66.80;;;;;;5032986;28;20034;-75
2022/10/05 10:28:26;;;;;;;8.43;2.90;;;24.40;66.40;;;;;;5033069;28;20470;-77
2022/10/05 10:30:55;;;;;;;7.35;3.03;;;24.50;66.00;;;;;;5033204;28;20021;-74
2022/10/05 10:33:58;;;;;;;8.43;3.00;;;24.60;65.50;;;;;;5032999;28;20163;-76
2022/10/05 10:37:01;;;;;;;6.70;2.63;;;24.60;64.90;;;;;;5015117;28;20075;-74
2022/10/05 10:39:48;;;;;;;7.53;3.70;;;24.70;65.20;;;;;;5032431;28;20025;-75
2022/10/05 10:42:42;;;;;;;9.27;3.40;;;24.80;65.00;;;;;;5033057;28;20100;-73
2022/10/05 10:45:18;;;;;;;7.28;2.75;;;24.80;64.20;;;;;;5033048;28;20045;-75
2022/10/05 10:47:51;;;;;;;8.90;2.95;;;25.00;64.60;;;;;;5015056;28;20498;-76
2022/10/05 10:50:22;;;;;;;8.27;2.88;;;25.00;63.60;;;;;;5032878;28;20022;-75
2022/10/05 10:53:01;;;;;;;13.90;3.20;;;25.00;63.60;;;;;;5033080;28;20037;-76
2022/10/05 10:58:27;;;;;;;6.10;2.80;;;25.10;62.90;;;;;;5050737;28;20068;-70
2022/10/05 11:01:22;;;;;;;9.00;2.80;;;25.10;62.80;;;;;;5035103;28;20459;-72
2022/10/05 11:04:09;;;;;;;6.03;2.97;;;25.30;62.50;;;;;;5052753;28;20020;-73
2022/10/05 11:07:03;;;;;;;9.23;2.65;;;25.40;62.00;;;;;;5051962;28;20065;-71
2022/10/05 11:09:58;;;;;;;11.45;3.13;;;25.50;61.80;;;;;;5054882;28;20048;-72
2022/10/05 11:12:45;;;;;;;6.95;2.45;;;25.50;61.10;;;;;;5056068;28;20025;-79
2022/10/05 11:15:33;;;;;;;7.55;2.83;;;25.50;60.50;;;;;;5056621;28;20027;-72
2022/10/05 11:18:08;;;;;;;5.47;2.60;;;25.70;60.40;;;;;;5057894;28;20107;-76
2022/10/05 11:20:58;;;;;;;8.30;2.80;;;25.70;60.00;;;;;;5057571;28;20028;-73
2022/10/05 11:24:05;;;;;;;6.90;3.40;;;25.70;59.80;;;;;;5056570;28;20056;-72
2022/10/05 11:26:55;;;;;;;8.27;2.97;;;25.90;59.10;;;;;;5054233;28;20033;-72
2022/10/05 11:29:24;;;;;;;10.10;2.70;;;26.10;59.20;;;;;;5053685;28;20029;-69
2022/10/05 11:32:28;;;;;;;8.85;2.80;;;26.20;59.30;;;;;;5052537;28;20060;-78
2022/10/05 11:35:23;;;;;;;6.57;3.60;;;26.20;58.00;;;;;;5052027;28;20359;-74
2022/10/05 11:38:09;;;;;;;12.10;3.13;;;26.30;58.50;;;;;;5052081;28;20143;-72
2022/10/05 11:41:08;;;;;;;8.02;2.83;;;26.30;57.00;;;;;;5051954;28;20051;-74
2022/10/05 11:43:58;;;;;;;6.07;3.10;;;26.30;57.30;;;;;;5052319;28;20047;-74
2022/10/05 11:46:35;;;;;;;6.63;2.58;;;26.40;56.60;;;;;;5052311;28;20032;-73
2022/10/05 11:49:14;;;;;;;6.13;2.28;;;26.50;56.40;;;;;;5056680;28;20055;-71
2022/10/05 11:51:54;;;;;;;8.15;2.78;;;26.40;55.90;;;;;;5056256;28;20047;-73
2022/10/05 11:54:41;;;;;;;13.93;2.80;;;26.40;55.80;;;;;;5056181;28;20025;-70
2022/10/05 11:57:15;;;;;;;5.35;2.38;;;26.40;55.20;;;;;;5055995;28;20092;-76
2022/10/05 12:00:00;;;;;;;6.88;2.65;;;26.50;55.40;;;;;;5038117;28;20066;-73
2022/10/05 12:02:49;;;;;;;9.05;2.72;;;26.50;55.10;;;;;;5055787;28;20490;-76
2022/10/05 12:05:23;;;;;;;6.07;2.67;;;26.60;55.00;;;;;;5055812;28;20033;-74
2022/10/05 12:07:52;;;;;;;8.70;2.58;;;26.70;54.30;;;;;;5055880;28;20043;-72
2022/10/05 12:10:30;;;;;;;7.82;2.97;;;26.80;54.70;;;;;;5055876;28;20029;-70
2022/10/05 12:12:55;;;;;;;8.52;3.25;;;26.90;53.80;;;;;;5055438;28;20041;-72
2022/10/05 12:15:34;;;;;;;10.55;2.83;;;27.00;54.50;;;;;;5055535;28;20025;-70
2022/10/05 12:18:19;;;;;;;5.32;3.03;;;27.00;54.40;;;;;;5055318;28;20025;-70
2022/10/05 12:21:00;;;;;;;9.88;2.67;;;27.10;53.60;;;;;;5056086;28;20036;-71
2022/10/05 12:23:32;;;;;;;6.28;2.70;;;27.10;53.50;;;;;;5055443;28;20404;-71
2022/10/05 12:26:03;;;;;;;7.28;2.53;;;26.80;54.00;;;;;;5055123;28;20040;-70
2022/10/05 12:28:42;;;;;;;8.65;2.70;;;26.70;54.20;;;;;;5055062;28;20041;-71
2022/10/05 12:31:41;;;;;;;7.85;2.50;;;26.70;54.20;;;;;;5054800;28;20058;-70
2022/10/05 12:34:20;;;;;;;4.82;2.38;;;26.80;55.00;;;;;;5054589;28;20036;-70
2022/10/05 12:36:53;;;;;;;11.32;3.03;;;26.90;57.80;;;;;;5054868;28;20032;-69
2022/10/05 12:39:35;;;;;;;5.78;2.65;;;27.00;59.00;;;;;;5054803;28;20072;-70
2022/10/05 12:42:13;;;;;;;7.80;2.70;;;27.10;59.30;;;;;;5037034;28;20022;-70
2022/10/05 12:44:53;;;;;;;9.38;2.70;;;27.20;59.60;;;;;;5055201;28;20037;-71
2022/10/05 12:47:53;;;;;;;9.05;2.83;;;27.30;60.60;;;;;;5054875;28;20116;-70
2022/10/05 12:50:33;;;;;;;5.95;2.35;;;27.40;60.00;;;;;;5054872;28;20055;-71
2022/10/05 12:53:18;;;;;;;4.70;2.40;;;27.30;61.20;;;;;;5054712;28;20025;-70
2022/10/05 12:56:20;;;;;;;8.63;2.70;;;27.40;61.30;;;;;;5054272;28;20032;-70
2022/10/05 12:58:51;;;;;;;13.75;2.75;;;27.40;61.80;;;;;;4987579;28;20051;-70
2022/10/05 13:01:40;;;;;;;14.50;3.10;;;27.50;62.20;;;;;;5054200;28;20032;-72
2022/10/05 13:04:42;;;;;;;8.73;3.03;;;27.60;62.20;;;;;;5054427;28;20104;-69
2022/10/05 13:07:29;;;;;;;8.30;2.53;;;27.60;62.00;;;;;;5054237;28;20040;-68
2022/10/05 13:10:03;;;;;;;9.55;2.47;;;27.60;62.40;;;;;;5054289;28;20114;-71
2022/10/05 13:12:34;;;;;;;6.85;2.20;;;27.50;62.70;;;;;;5054230;28;20154;-73
2022/10/05 13:15:25;;;;;;;10.77;2.80;;;27.40;62.70;;;;;;5054000;28;20359;-72
2022/10/05 13:18:09;;;;;;;6.03;2.10;;;27.40;63.10;;;;;;5054472;28;20398;-73
2022/10/05 13:20:42;;;;;;;9.80;2.40;;;27.30;62.80;;;;;;5054306;28;20422;-75
2022/10/05 13:23:39;;;;;;;7.15;2.65;;;27.40;63.00;;;;;;5054176;28;20470;-76
2022/10/05 13:26:19;;;;;;;8.38;3.15;;;27.50;62.80;;;;;;5053834;28;20079;-73
2022/10/05 13:29:13;;;;;;;7.63;2.60;;;27.50;62.70;;;;;;5054053;28;20074;-76
2022/10/05 13:31:53;;;;;;;7.50;2.50;;;27.50;62.50;;;;;;5051479;28;20060;-72
2022/10/05 13:34:47;;;;;;;6.55;2.58;;;27.60;62.70;;;;;;5053878;28;20049;-75
2022/10/05 13:37:42;;;;;;;7.43;2.72;;;27.60;62.80;;;;;;5054072;28;20051;-78
2022/10/05 13:40:20;;;;;;;11.35;2.85;;;27.60;62.80;;;;;;5035679;28;20123;-77
2022/10/05 13:43:19;;;;;;;7.68;2.97;;;27.40;63.20;;;;;;5053832;28;20048;-74
2022/10/05 13:45:49;;;;;;;6.45;2.47;;;27.30;64.30;;;;;;5053770;28;20025;-74
2022/10/05 13:48:33;;;;;;;11.15;2.78;;;27.10;64.30;;;;;;5053498;28;20367;-76
2022/10/05 13:51:10;;;;;;;5.78;2.30;;;27.10;64.60;;;;;;5035703;28;20033;-75
2022/10/05 13:53:44;;;;;;;9.57;3.20;;;27.10;64.50;;;;;;5053536;28;20025;-76
2022/10/05 13:56:20;;;;;;;10.30;3.35;;;27.10;64.80;;;;;;5053497;28;20442;-76
2022/10/05 13:59:17;;;;;;;6.90;2.60;;;27.20;64.60;;;;;;5053385;28;20567;-73
2022/10/05 14:01:54;;;;;;;7.32;2.78;;;27.20;64.30;;;;;;5053795;28;20032;-71
2022/10/05 14:04:23;;;;;;;16.33;3.08;;;27.20;64.50;;;;;;5052868;28;20033;-73
2022/10/05 14:07:03;;;;;;;7.38;2.50;;;27.20;64.50;;;;;;5052998;28;20024;-71
2022/10/05 14:09:32;;;;;;;8.10;2.70;;;27.20;64.50;;;;;;5053201;28;20382;-73
2022/10/05 14:12:04;;;;;;;8.55;2.35;;;27.10;64.40;;;;;;5052527;28;20463;-77